Time;durP1;ratioP1;P1;durP2;ratioP2;P2;SDS_P1;SDS_P2;PMS_P1;PMS_P2;Temp;Humidity;BMP_temperature;BMP_pressure;BME280_temperature;BME280_humidity;BME280_pressure;Samples;Min_cycle;Max_cycle;Signal;HPM_P1;HPM_P2
2021/11/28 00:01:17;;;;;;;10.68;4.63;;;3.30;93.10;;;;;;5037371;28;20053;-66
2021/11/28 00:03:46;;;;;;;23.73;14.90;;;3.30;93.20;;;;;;5059068;28;20514;-66
2021/11/28 00:06:25;;;;;;;22.63;13.10;;;3.30;93.10;;;;;;5060762;28;20085;-66
2021/11/28 00:09:16;;;;;;;11.45;4.55;;;3.30;93.10;;;;;;5056591;28;20054;-67
2021/11/28 00:11:45;;;;;;;7.68;4.03;;;3.30;94.40;;;;;;5057117;28;20046;-66
2021/11/28 00:14:15;;;;;;;11.73;5.67;;;3.30;92.90;;;;;;5061751;28;20063;-67
2021/11/28 00:16:43;;;;;;;10.75;4.18;;;3.30;93.20;;;;;;5054680;28;20282;-65
2021/11/28 00:19:10;;;;;;;7.63;3.80;;;3.30;93.70;;;;;;5046810;28;20041;-66
2021/11/28 00:21:37;;;;;;;11.50;5.80;;;3.20;94.20;;;;;;5061142;28;20052;-65
2021/11/28 00:24:04;;;;;;;14.43;4.40;;;3.20;93.00;;;;;;5065345;28;20043;-68
2021/11/28 00:26:31;;;;;;;69.57;36.75;;;3.20;93.30;;;;;;5059489;28;20057;-68
2021/11/28 00:28:58;;;;;;;10.05;5.65;;;3.20;93.30;;;;;;5067238;28;20064;-69
2021/11/28 00:31:25;;;;;;;46.70;29.25;;;3.20;93.10;;;;;;5015328;28;20079;-69
2021/11/28 00:33:52;;;;;;;14.90;8.13;;;3.20;93.80;;;;;;5063212;28;20048;-63
2021/11/28 00:36:19;;;;;;;13.93;6.53;;;3.20;92.60;;;;;;5057146;28;20057;-64
2021/11/28 00:38:46;;;;;;;10.73;5.53;;;3.10;93.30;;;;;;5029149;28;20099;-65
2021/11/28 00:41:13;;;;;;;11.60;6.82;;;3.10;93.00;;;;;;5050981;28;20583;-64
2021/11/28 00:43:40;;;;;;;12.68;5.32;;;3.10;93.60;;;;;;5065168;28;20048;-65
2021/11/28 00:46:07;;;;;;;9.93;6.57;;;3.00;93.30;;;;;;5052491;28;20093;-64
2021/11/28 00:48:37;;;;;;;13.27;6.45;;;3.00;94.10;;;;;;5058095;28;20180;-66
2021/11/28 00:51:22;;;;;;;11.32;5.32;;;3.00;93.80;;;;;;5051537;28;20052;-67
2021/11/28 00:53:50;;;;;;;14.15;6.53;;;2.90;94.50;;;;;;5057372;28;20488;-67
2021/11/28 00:56:18;;;;;;;11.52;5.97;;;2.90;93.40;;;;;;5032848;28;20049;-66
2021/11/28 00:58:45;;;;;;;12.05;5.85;;;2.80;93.80;;;;;;5063302;28;20040;-68
2021/11/28 01:01:13;;;;;;;10.27;5.55;;;2.70;93.90;;;;;;5050103;28;20053;-66
2021/11/28 01:03:40;;;;;;;15.30;5.63;;;2.80;94.40;;;;;;5050048;28;20069;-65
2021/11/28 01:06:07;;;;;;;11.00;6.03;;;2.70;93.90;;;;;;5033641;28;20049;-66
2021/11/28 01:08:35;;;;;;;13.77;6.63;;;2.80;95.10;;;;;;5050936;28;20481;-66
2021/11/28 01:11:02;;;;;;;13.45;6.00;;;2.80;94.40;;;;;;5049625;28;20133;-65
2021/11/28 01:13:29;;;;;;;14.00;7.35;;;2.80;94.50;;;;;;5051903;28;20081;-65
2021/11/28 01:15:56;;;;;;;12.25;6.57;;;2.80;93.80;;;;;;5049768;28;20394;-65
2021/11/28 01:18:23;;;;;;;52.78;31.55;;;2.80;94.10;;;;;;5051016;28;20055;-62
2021/11/28 01:20:51;;;;;;;86.70;61.50;;;3.00;94.10;;;;;;5048820;28;20048;-64
2021/11/28 01:23:18;;;;;;;18.92;8.88;;;3.20;95.90;;;;;;5049102;28;20064;-71
2021/11/28 01:25:45;;;;;;;12.48;6.65;;;3.10;93.10;;;;;;5049767;28;20041;-69
2021/11/28 01:28:12;;;;;;;18.38;8.63;;;3.00;92.50;;;;;;5049592;28;20037;-68
2021/11/28 01:30:39;;;;;;;14.15;6.55;;;2.90;93.00;;;;;;5049428;28;20053;-67
2021/11/28 01:33:06;;;;;;;15.73;7.60;;;2.90;94.70;;;;;;5050211;28;20053;-67
2021/11/28 01:35:35;;;;;;;17.00;8.15;;;2.90;93.50;;;;;;5050882;28;20512;-68
2021/11/28 01:38:03;;;;;;;12.98;7.05;;;2.80;94.10;;;;;;5049271;28;20045;-67
2021/11/28 01:40:30;;;;;;;18.15;8.40;;;2.80;93.00;;;;;;5049319;28;20053;-68
2021/11/28 01:43:07;;;;;;;20.10;7.75;;;2.80;93.90;;;;;;5050187;28;20056;-69
2021/11/28 01:45:35;;;;;;;13.68;7.47;;;2.70;93.60;;;;;;5049332;28;20048;-68
2021/11/28 01:48:04;;;;;;;17.80;8.50;;;2.80;94.40;;;;;;5050195;28;20079;-68
2021/11/28 01:50:32;;;;;;;13.60;7.18;;;2.80;93.70;;;;;;5049191;28;20483;-67
2021/11/28 01:53:00;;;;;;;17.20;7.20;;;2.70;94.10;;;;;;5032735;28;20493;-67
2021/11/28 01:55:31;;;;;;;17.90;8.27;;;2.70;93.60;;;;;;5032105;28;20503;-68
2021/11/28 01:57:58;;;;;;;19.30;8.20;;;2.70;93.20;;;;;;5012552;28;20049;-68
2021/11/28 02:00:28;;;;;;;17.92;8.23;;;2.70;93.80;;;;;;5039453;28;20075;-68
2021/11/28 02:02:57;;;;;;;16.83;7.63;;;2.70;93.40;;;;;;5032746;28;20088;-68
2021/11/28 02:05:24;;;;;;;13.13;7.45;;;2.70;94.20;;;;;;5049730;28;20049;-68
2021/11/28 02:07:52;;;;;;;17.98;7.43;;;2.70;93.70;;;;;;5048019;28;20041;-69
2021/11/28 02:10:19;;;;;;;14.32;7.45;;;2.70;93.60;;;;;;5049440;28;20394;-68
2021/11/28 02:12:46;;;;;;;14.57;7.28;;;2.60;93.70;;;;;;5048890;28;20052;-67
2021/11/28 02:15:14;;;;;;;16.52;7.63;;;2.60;94.10;;;;;;5029929;28;20060;-67
2021/11/28 02:17:41;;;;;;;16.35;7.28;;;2.60;93.60;;;;;;5045671;28;20045;-67
2021/11/28 02:20:09;;;;;;;13.18;6.85;;;2.70;94.30;;;;;;5048766;28;20092;-68
2021/11/28 02:22:37;;;;;;;15.57;7.13;;;2.70;93.80;;;;;;5048937;28;20045;-68
2021/11/28 02:25:08;;;;;;;18.08;7.70;;;2.60;94.10;;;;;;5050297;28;20048;-67
2021/11/28 02:27:35;;;;;;;13.00;6.80;;;2.60;94.40;;;;;;5031987;28;20041;-68
2021/11/28 02:30:03;;;;;;;12.98;6.47;;;2.60;93.80;;;;;;5048296;28;20041;-67
2021/11/28 02:32:30;;;;;;;15.80;6.80;;;2.60;94.20;;;;;;5053545;28;20049;-66
2021/11/28 02:34:57;;;;;;;16.00;7.43;;;2.50;94.50;;;;;;5035658;28;20500;-67
2021/11/28 02:37:24;;;;;;;11.95;6.80;;;2.50;94.50;;;;;;5053321;28;20045;-67
2021/11/28 02:39:52;;;;;;;15.02;6.90;;;2.50;94.80;;;;;;5052040;28;20423;-67
2021/11/28 02:42:20;;;;;;;17.00;7.80;;;2.50;95.00;;;;;;5052645;28;20052;-67
2021/11/28 02:44:50;;;;;;;21.27;8.88;;;2.50;95.10;;;;;;5019121;28;20378;-66
2021/11/28 02:47:19;;;;;;;14.52;7.32;;;2.50;94.60;;;;;;5053314;28;20403;-68
2021/11/28 02:49:46;;;;;;;18.45;8.52;;;2.50;94.00;;;;;;5052181;28;20056;-69
2021/11/28 02:52:15;;;;;;;18.42;7.65;;;2.50;94.30;;;;;;5050876;28;20041;-65
2021/11/28 02:54:42;;;;;;;42.93;24.70;;;2.40;94.90;;;;;;5050545;28;20049;-70
2021/11/28 02:57:10;;;;;;;20.33;10.40;;;2.60;94.40;;;;;;5053495;28;20056;-65
2021/11/28 02:59:37;;;;;;;15.60;7.40;;;2.70;92.90;;;;;;5051115;28;20057;-66
2021/11/28 03:02:04;;;;;;;15.38;7.38;;;2.60;94.10;;;;;;5052299;28;20101;-65
2021/11/28 03:04:31;;;;;;;16.27;8.05;;;2.60;94.90;;;;;;5052400;28;20143;-66
2021/11/28 03:06:58;;;;;;;16.17;8.02;;;2.50;94.50;;;;;;5042794;28;20056;-65
2021/11/28 03:09:25;;;;;;;13.45;7.30;;;2.50;93.90;;;;;;5051575;28;20136;-70
2021/11/28 03:11:52;;;;;;;20.70;8.25;;;2.60;94.00;;;;;;5051485;28;20053;-67
2021/11/28 03:14:19;;;;;;;19.02;7.10;;;2.50;94.20;;;;;;5044526;28;20160;-67
2021/11/28 03:16:46;;;;;;;21.33;6.70;;;2.50;94.10;;;;;;5052600;28;20056;-68
2021/11/28 03:19:13;;;;;;;17.13;7.10;;;2.50;94.10;;;;;;5051900;28;20041;-66
2021/11/28 03:21:41;;;;;;;14.02;6.85;;;2.50;93.70;;;;;;5052278;28;20061;-66
2021/11/28 03:24:08;;;;;;;12.00;5.70;;;2.40;94.70;;;;;;5034101;28;20488;-66
2021/11/28 03:26:37;;;;;;;13.35;5.97;;;2.40;94.70;;;;;;5051385;28;20507;-65
2021/11/28 03:29:10;;;;;;;12.10;5.80;;;2.40;93.80;;;;;;5031441;28;20096;-66
2021/11/28 03:31:39;;;;;;;10.30;4.97;;;2.40;94.90;;;;;;5049080;28;20045;-65
2021/11/28 03:34:07;;;;;;;8.43;4.75;;;2.30;94.80;;;;;;5034546;28;20505;-65
2021/11/28 03:36:37;;;;;;;8.75;4.60;;;2.30;94.20;;;;;;5021996;28;20060;-65
2021/11/28 03:39:06;;;;;;;11.23;4.97;;;2.20;94.80;;;;;;5033039;28;20042;-66
2021/11/28 03:41:33;;;;;;;15.07;6.00;;;2.20;95.00;;;;;;5048801;28;20063;-65
2021/11/28 03:44:00;;;;;;;14.15;4.75;;;2.10;94.70;;;;;;5050684;28;20075;-66
2021/11/28 03:46:28;;;;;;;16.23;5.28;;;2.10;95.10;;;;;;5050716;28;20056;-66
2021/11/28 03:48:56;;;;;;;11.02;5.82;;;2.00;95.60;;;;;;5031810;28;20095;-66
2021/11/28 03:51:23;;;;;;;13.10;4.30;;;2.00;94.90;;;;;;5034975;28;20055;-65
2021/11/28 03:53:50;;;;;;;11.68;4.82;;;1.90;96.00;;;;;;5030972;28;20041;-66
2021/11/28 03:56:17;;;;;;;11.35;3.88;;;1.90;95.60;;;;;;5051037;28;20056;-66
2021/11/28 03:58:44;;;;;;;11.13;3.88;;;1.80;95.70;;;;;;5051084;28;20049;-66
2021/11/28 04:01:12;;;;;;;12.75;3.70;;;1.80;96.20;;;;;;5051368;28;20044;-67
2021/11/28 04:03:40;;;;;;;14.40;4.75;;;1.80;95.60;;;;;;5033502;28;20083;-66
2021/11/28 04:06:07;;;;;;;9.30;4.25;;;1.80;95.70;;;;;;5050957;28;20053;-66
2021/11/28 04:08:35;;;;;;;8.93;3.50;;;1.70;95.60;;;;;;5050412;28;20091;-67
2021/11/28 04:11:02;;;;;;;8.38;3.65;;;1.70;95.50;;;;;;5050841;28;20475;-67
2021/11/28 04:13:29;;;;;;;8.90;3.67;;;1.70;95.90;;;;;;5050863;28;20053;-66
2021/11/28 04:15:56;;;;;;;13.13;4.38;;;1.60;96.40;;;;;;5046095;28;20053;-66
2021/11/28 04:18:23;;;;;;;11.63;4.57;;;1.60;95.70;;;;;;5049901;28;20049;-65
2021/11/28 04:20:50;;;;;;;7.95;4.65;;;1.50;96.10;;;;;;5050231;28;20083;-65
2021/11/28 04:23:18;;;;;;;7.25;2.92;;;1.50;95.80;;;;;;5050015;28;20083;-66
2021/11/28 04:25:48;;;;;;;11.73;4.90;;;1.50;96.10;;;;;;5033317;28;20055;-65
2021/11/28 04:28:15;;;;;;;11.52;3.70;;;1.50;96.10;;;;;;5033667;28;20129;-65
2021/11/28 04:30:42;;;;;;;8.48;3.72;;;1.50;96.60;;;;;;5049533;28;20041;-66
2021/11/28 04:33:10;;;;;;;11.20;4.38;;;1.40;96.60;;;;;;5049421;28;20146;-65
2021/11/28 04:35:37;;;;;;;13.77;3.92;;;1.40;96.80;;;;;;5050691;28;20044;-66
2021/11/28 04:38:04;;;;;;;8.75;4.47;;;1.40;96.20;;;;;;5049823;28;20067;-66
2021/11/28 04:40:31;;;;;;;10.10;4.60;;;1.40;96.40;;;;;;5030504;28;20133;-65
2021/11/28 04:42:58;;;;;;;9.73;3.67;;;1.40;96.60;;;;;;5050345;28;20094;-65
2021/11/28 04:45:25;;;;;;;8.05;3.53;;;1.40;97.20;;;;;;5049251;28;20389;-68
2021/11/28 04:47:52;;;;;;;11.30;4.00;;;1.40;96.50;;;;;;5048632;28;20051;-67
2021/11/28 04:50:19;;;;;;;9.20;3.53;;;1.40;96.70;;;;;;5050761;28;20128;-65
2021/11/28 04:52:46;;;;;;;8.48;3.55;;;1.30;96.30;;;;;;5048969;28;20110;-67
2021/11/28 04:55:13;;;;;;;8.75;3.65;;;1.40;96.50;;;;;;5047656;28;20057;-66
2021/11/28 04:57:40;;;;;;;9.35;3.47;;;1.30;95.90;;;;;;5047920;28;20060;-66
2021/11/28 05:00:13;;;;;;;15.75;6.13;;;1.30;96.30;;;;;;5033069;28;20052;-66
2021/11/28 05:02:39;;;;;;;7.57;3.65;;;1.30;95.80;;;;;;5032470;28;20045;-67
2021/11/28 05:05:07;;;;;;;8.50;3.13;;;1.30;96.10;;;;;;5050702;28;20045;-66
2021/11/28 05:07:34;;;;;;;16.67;4.03;;;1.20;96.50;;;;;;5033129;28;20081;-65
2021/11/28 05:10:01;;;;;;;10.65;3.55;;;1.20;96.70;;;;;;5050624;28;20041;-66
2021/11/28 05:12:28;;;;;;;10.23;3.20;;;1.20;96.20;;;;;;5030999;28;20056;-66
2021/11/28 05:14:55;;;;;;;8.52;3.10;;;1.20;95.60;;;;;;5049932;28;20041;-65
2021/11/28 05:17:22;;;;;;;6.43;3.38;;;1.20;95.90;;;;;;5049961;28;20100;-66
2021/11/28 05:19:49;;;;;;;9.93;3.17;;;1.20;96.00;;;;;;5050638;28;20121;-66
2021/11/28 05:22:16;;;;;;;5.90;2.85;;;1.10;96.40;;;;;;5016124;28;20075;-66
2021/11/28 05:24:43;;;;;;;5.93;3.05;;;1.10;95.60;;;;;;5014171;28;20064;-65
2021/11/28 05:27:10;;;;;;;10.05;3.28;;;1.10;96.10;;;;;;5032295;28;20044;-65
2021/11/28 05:29:37;;;;;;;11.35;3.22;;;1.10;95.50;;;;;;5049219;28;20110;-65
2021/11/28 05:32:04;;;;;;;10.75;3.20;;;1.10;96.30;;;;;;5029840;28;20073;-69
2021/11/28 05:34:31;;;;;;;8.20;3.40;;;1.10;96.10;;;;;;5031990;28;20053;-65
2021/11/28 05:36:58;;;;;;;6.22;2.75;;;1.10;95.50;;;;;;5048805;28;20140;-66
2021/11/28 05:39:25;;;;;;;8.60;3.17;;;1.10;95.30;;;;;;5015601;28;20416;-65
2021/11/28 05:41:52;;;;;;;7.10;2.78;;;1.10;96.00;;;;;;5050589;28;20052;-66
2021/11/28 05:44:19;;;;;;;11.85;3.60;;;1.10;94.80;;;;;;5048248;28;20057;-65
2021/11/28 05:46:46;;;;;;;8.27;3.33;;;1.10;95.30;;;;;;5049291;28;20049;-65
2021/11/28 05:49:13;;;;;;;7.43;2.75;;;1.10;94.70;;;;;;5048254;28;20120;-65
2021/11/28 05:51:40;;;;;;;8.68;2.72;;;1.00;94.70;;;;;;5048402;28;20041;-65
2021/11/28 05:54:07;;;;;;;7.93;2.42;;;1.00;96.20;;;;;;5045926;28;20068;-65
2021/11/28 05:56:34;;;;;;;8.25;2.90;;;1.00;95.00;;;;;;5030872;28;20060;-66
2021/11/28 05:59:01;;;;;;;8.23;3.42;;;1.00;96.00;;;;;;5048694;28;20037;-69
2021/11/28 06:01:28;;;;;;;6.68;2.80;;;1.00;95.90;;;;;;5050848;28;20070;-67
2021/11/28 06:03:55;;;;;;;10.60;2.60;;;1.00;95.30;;;;;;5047847;28;20080;-67
2021/11/28 06:06:22;;;;;;;6.25;3.10;;;1.00;95.40;;;;;;5049466;28;20102;-67
2021/11/28 06:08:49;;;;;;;6.70;2.83;;;1.00;94.80;;;;;;5048196;28;20443;-67
2021/11/28 06:11:15;;;;;;;9.23;2.70;;;1.00;94.90;;;;;;5049411;28;20045;-67
2021/11/28 06:13:42;;;;;;;8.27;3.00;;;1.00;95.10;;;;;;5029895;28;20121;-67
2021/11/28 06:16:09;;;;;;;7.43;3.42;;;1.00;95.10;;;;;;5047177;28;20049;-66
2021/11/28 06:18:36;;;;;;;7.65;2.80;;;1.00;95.50;;;;;;5049003;28;20051;-67
2021/11/28 06:21:04;;;;;;;10.60;2.85;;;1.00;95.70;;;;;;5049663;28;20053;-66
2021/11/28 06:23:31;;;;;;;5.85;2.60;;;1.00;95.10;;;;;;5048449;28;20120;-67
2021/11/28 06:25:58;;;;;;;5.65;2.88;;;0.90;95.70;;;;;;5012657;28;20052;-66
2021/11/28 06:28:33;;;;;;;7.03;2.90;;;0.90;96.00;;;;;;5031787;28;20120;-67
2021/11/28 06:31:00;;;;;;;11.82;3.42;;;0.90;95.40;;;;;;5030087;28;20045;-66
2021/11/28 06:33:27;;;;;;;5.03;2.05;;;0.90;95.80;;;;;;5048218;28;20106;-64
2021/11/28 06:35:54;;;;;;;5.45;2.58;;;0.90;95.60;;;;;;5049537;28;20045;-65
2021/11/28 06:38:21;;;;;;;9.57;2.28;;;0.90;95.40;;;;;;5047679;28;20041;-66
2021/11/28 06:40:48;;;;;;;6.65;3.10;;;0.80;96.00;;;;;;5049038;28;20051;-65
2021/11/28 06:43:15;;;;;;;10.15;2.85;;;0.90;95.60;;;;;;5049119;28;20072;-66
2021/11/28 06:45:42;;;;;;;9.60;2.22;;;0.80;95.80;;;;;;5047598;28;20176;-65
2021/11/28 06:48:09;;;;;;;6.90;2.45;;;0.80;95.60;;;;;;5031899;28;20037;-65
2021/11/28 06:50:36;;;;;;;12.65;3.05;;;0.80;95.60;;;;;;5048900;28;20167;-66
2021/11/28 06:53:04;;;;;;;4.85;2.05;;;0.90;95.30;;;;;;5047508;28;20048;-65
2021/11/28 06:55:32;;;;;;;5.43;2.17;;;0.90;95.20;;;;;;5047289;28;20044;-65
2021/11/28 06:57:58;;;;;;;11.68;2.22;;;0.90;95.30;;;;;;5031741;28;20132;-65
2021/11/28 07:00:25;;;;;;;8.15;2.20;;;0.90;95.20;;;;;;5047995;28;20421;-65
2021/11/28 07:02:52;;;;;;;4.82;2.08;;;0.90;95.50;;;;;;5055425;28;20048;-64
2021/11/28 07:05:19;;;;;;;18.88;9.90;;;0.90;94.90;;;;;;5047178;28;20448;-69
2021/11/28 07:07:46;;;;;;;10.23;4.30;;;1.00;95.70;;;;;;5047537;28;20562;-69
2021/11/28 07:10:13;;;;;;;6.93;2.30;;;1.00;95.30;;;;;;5028151;28;20045;-68
2021/11/28 07:12:40;;;;;;;5.80;2.30;;;1.00;95.30;;;;;;5048841;28;20065;-69
2021/11/28 07:15:08;;;;;;;6.63;2.50;;;1.00;94.60;;;;;;5047490;28;20432;-69
2021/11/28 07:17:34;;;;;;;10.23;2.22;;;0.90;94.60;;;;;;5051780;28;20381;-70
2021/11/28 07:20:01;;;;;;;8.20;2.75;;;1.00;95.20;;;;;;5051371;28;20045;-70
2021/11/28 07:22:30;;;;;;;6.13;1.95;;;0.90;95.40;;;;;;5053139;28;20048;-69
2021/11/28 07:24:57;;;;;;;8.65;2.70;;;0.90;96.00;;;;;;5051219;28;20049;-70
2021/11/28 07:27:24;;;;;;;4.63;2.20;;;0.90;95.70;;;;;;5051253;28;20057;-70
2021/11/28 07:29:51;;;;;;;8.55;2.00;;;0.90;95.10;;;;;;5051263;28;20048;-69
2021/11/28 07:32:18;;;;;;;5.80;2.30;;;0.90;95.60;;;;;;5045393;28;20056;-68
2021/11/28 07:34:45;;;;;;;6.50;2.60;;;0.90;95.30;;;;;;5050739;28;20059;-68
2021/11/28 07:37:12;;;;;;;6.57;3.13;;;0.90;95.20;;;;;;5051062;28;20460;-68
2021/11/28 07:39:39;;;;;;;6.43;1.98;;;0.90;95.10;;;;;;5052895;28;20414;-70
2021/11/28 07:42:07;;;;;;;4.15;1.80;;;0.90;95.20;;;;;;5050211;28;20098;-68
2021/11/28 07:44:35;;;;;;;5.30;1.70;;;0.90;94.90;;;;;;5050200;28;20045;-70
2021/11/28 07:47:02;;;;;;;8.48;2.55;;;0.90;95.70;;;;;;5050767;28;20444;-68
2021/11/28 07:49:29;;;;;;;8.75;2.10;;;0.90;95.60;;;;;;5051799;28;20075;-68
2021/11/28 07:51:56;;;;;;;7.00;3.15;;;0.90;95.90;;;;;;5050492;28;20049;-68
2021/11/28 07:54:23;;;;;;;11.90;3.15;;;0.90;96.00;;;;;;5049826;28;20053;-70
2021/11/28 07:56:50;;;;;;;7.32;2.08;;;0.80;95.90;;;;;;5051665;28;20056;-69
2021/11/28 07:59:17;;;;;;;9.02;2.85;;;0.80;96.20;;;;;;5051379;28;20378;-68
2021/11/28 08:01:44;;;;;;;229.05;134.30;;;0.80;96.00;;;;;;5049324;28;20056;-67
2021/11/28 08:04:11;;;;;;;20.35;11.30;;;0.90;98.90;;;;;;5050047;28;20078;-70
2021/11/28 08:06:38;;;;;;;9.07;2.80;;;1.00;95.00;;;;;;5050992;28;20045;-70
2021/11/28 08:09:05;;;;;;;6.78;2.90;;;1.00;94.10;;;;;;5032434;28;20396;-71
2021/11/28 08:11:33;;;;;;;7.97;2.42;;;1.00;94.80;;;;;;5050563;28;20049;-69
2021/11/28 08:14:00;;;;;;;11.93;2.88;;;1.00;94.60;;;;;;5052407;28;20048;-69
2021/11/28 08:16:27;;;;;;;6.82;2.78;;;1.00;94.30;;;;;;5050689;28;20160;-70
2021/11/28 08:18:54;;;;;;;10.32;3.33;;;1.00;94.60;;;;;;5051880;28;20040;-69
2021/11/28 08:21:26;;;;;;;7.82;2.30;;;1.00;94.20;;;;;;5052299;28;20492;-71
2021/11/28 08:24:05;;;;;;;9.30;2.13;;;1.00;93.90;;;;;;5034275;28;20052;-71
2021/11/28 08:26:33;;;;;;;5.23;2.50;;;1.00;94.90;;;;;;5046526;28;20110;-71
2021/11/28 08:29:03;;;;;;;15.13;3.97;;;1.00;94.10;;;;;;5050997;28;20059;-71
2021/11/28 08:31:30;;;;;;;5.68;2.42;;;1.00;94.30;;;;;;5051854;28;20064;-70
2021/11/28 08:33:57;;;;;;;10.80;3.15;;;0.90;94.10;;;;;;5048629;28;20041;-70
2021/11/28 08:36:24;;;;;;;7.43;2.75;;;1.00;94.40;;;;;;5049942;28;20045;-71
2021/11/28 08:38:54;;;;;;;6.45;2.78;;;1.00;94.10;;;;;;5049634;28;20041;-70
2021/11/28 08:41:27;;;;;;;4.78;2.60;;;1.00;93.90;;;;;;5051157;28;20431;-70
2021/11/28 08:43:55;;;;;;;9.48;2.22;;;1.00;93.50;;;;;;5048815;28;20041;-71
2021/11/28 08:46:21;;;;;;;14.18;4.93;;;1.00;93.50;;;;;;5032295;28;20049;-70
2021/11/28 08:48:49;;;;;;;6.95;2.80;;;1.00;93.50;;;;;;5032216;28;20096;-70
2021/11/28 08:51:15;;;;;;;7.22;2.30;;;1.10;93.20;;;;;;5049674;28;20057;-68
2021/11/28 08:53:43;;;;;;;7.95;2.30;;;1.00;93.00;;;;;;5051052;28;20571;-71
2021/11/28 08:56:10;;;;;;;8.68;2.53;;;1.00;93.20;;;;;;5049316;28;20048;-70
2021/11/28 08:58:37;;;;;;;5.95;1.73;;;1.10;93.30;;;;;;5048952;28;20071;-69
2021/11/28 09:01:04;;;;;;;6.75;3.70;;;1.10;92.70;;;;;;5047472;28;20048;-70
2021/11/28 09:03:34;;;;;;;9.68;2.58;;;1.10;93.00;;;;;;5048240;28;20492;-70
2021/11/28 09:06:01;;;;;;;6.88;2.15;;;1.10;93.80;;;;;;5050122;28;20044;-69
2021/11/28 09:08:32;;;;;;;;;;;1.10;92.90;;;;;;5049491;28;20098;-70
2021/11/28 09:10:59;;;;;;;9.70;3.53;;;1.10;93.80;;;;;;5050454;28;19966;-70
2021/11/28 09:13:25;;;;;;;6.38;2.30;;;1.10;92.10;;;;;;5048110;28;20044;-70
2021/11/28 09:15:53;;;;;;;8.50;2.58;;;1.20;92.70;;;;;;5049134;28;20052;-70
2021/11/28 09:18:39;;;;;;;;;;;1.20;92.50;;;;;;5049813;28;20061;-69
2021/11/28 09:21:06;;;;;;;6.30;2.58;;;1.20;93.10;;;;;;5048582;28;19928;-70
2021/11/28 09:26:18;;;;;;;8.95;2.33;;;1.20;92.20;;;;;;5050099;28;20460;-70
2021/11/28 09:28:45;;;;;;;5.63;1.83;;;1.30;92.30;;;;;;5049267;28;20425;-71
2021/11/28 09:31:12;;;;;;;8.20;2.10;;;1.30;91.40;;;;;;5031339;28;20056;-70
2021/11/28 09:33:41;;;;;;;8.85;2.42;;;1.30;92.20;;;;;;5050122;28;20088;-70
2021/11/28 09:36:08;;;;;;;5.18;1.65;;;1.30;91.20;;;;;;5047206;28;20053;-70
2021/11/28 09:38:35;;;;;;;4.15;1.48;;;1.40;91.30;;;;;;5028830;28;20133;-70
2021/11/28 09:41:11;;;;;;;6.50;1.88;;;1.40;90.90;;;;;;5046252;28;20064;-70
2021/11/28 09:43:42;;;;;;;13.38;5.88;;;1.40;91.70;;;;;;5044631;28;20052;-70
2021/11/28 09:46:13;;;;;;;10.77;3.03;;;1.40;90.10;;;;;;5048826;28;20045;-70
2021/11/28 09:48:40;;;;;;;5.63;1.77;;;1.50;90.40;;;;;;5033272;28;20144;-70
2021/11/28 09:51:09;;;;;;;3.83;1.95;;;1.50;90.90;;;;;;5048451;28;20052;-70
2021/11/28 09:53:37;;;;;;;4.85;1.73;;;1.50;90.10;;;;;;5048863;28;20076;-70
2021/11/28 09:56:05;;;;;;;6.32;1.83;;;1.50;90.00;;;;;;5048847;28;20423;-70
2021/11/28 09:58:34;;;;;;;4.70;1.67;;;1.50;89.60;;;;;;5048196;28;20041;-70
2021/11/28 10:01:01;;;;;;;3.53;1.77;;;1.60;90.40;;;;;;5050176;28;20518;-70
2021/11/28 10:03:28;;;;;;;7.70;2.38;;;1.60;89.70;;;;;;5048816;28;20045;-69
2021/11/28 10:05:56;;;;;;;6.05;1.80;;;1.70;88.80;;;;;;5048603;28;20484;-70
2021/11/28 10:08:23;;;;;;;5.93;2.83;;;1.70;88.10;;;;;;5048313;28;20068;-70
2021/11/28 10:11:07;;;;;;;6.30;1.83;;;1.70;86.80;;;;;;5032388;28;20057;-70
2021/11/28 10:13:35;;;;;;;4.75;1.75;;;1.70;87.60;;;;;;5049330;28;20052;-70
2021/11/28 10:16:02;;;;;;;6.95;2.05;;;1.80;89.40;;;;;;5050297;28;20053;-70
2021/11/28 10:18:29;;;;;;;5.93;1.80;;;1.80;90.10;;;;;;5048714;28;20068;-70
2021/11/28 10:20:56;;;;;;;14.20;3.10;;;1.80;88.10;;;;;;5048767;28;20041;-69
2021/11/28 10:23:23;;;;;;;5.03;2.38;;;1.80;89.00;;;;;;5048487;28;20057;-70
2021/11/28 10:25:51;;;;;;;7.18;1.38;;;1.80;88.40;;;;;;5049065;28;20051;-70
2021/11/28 10:28:19;;;;;;;11.57;5.63;;;1.90;88.70;;;;;;5050352;28;20049;-69
2021/11/28 10:30:46;;;;;;;7.25;2.45;;;2.00;89.10;;;;;;5032055;28;20041;-69
2021/11/28 10:33:17;;;;;;;8.07;2.15;;;2.00;88.20;;;;;;5045055;28;20112;-69
2021/11/28 10:36:04;;;;;;;10.27;2.47;;;2.00;87.00;;;;;;5049567;28;20053;-70
2021/11/28 10:38:33;;;;;;;7.28;2.10;;;2.00;89.20;;;;;;5034793;28;20048;-66
2021/11/28 10:41:00;;;;;;;9.40;2.15;;;2.00;89.50;;;;;;5048655;28;20041;-70
2021/11/28 10:43:31;;;;;;;7.28;2.10;;;2.10;87.80;;;;;;5048986;28;20332;-67
2021/11/28 10:45:58;;;;;;;4.97;1.63;;;2.10;87.60;;;;;;5049704;28;20060;-65
2021/11/28 10:48:26;;;;;;;9.25;5.38;;;2.10;87.80;;;;;;5044935;28;20132;-68
2021/11/28 10:50:53;;;;;;;32.85;21.33;;;2.20;87.60;;;;;;5048605;28;20078;-66
2021/11/28 10:53:21;;;;;;;51.08;33.65;;;2.30;87.10;;;;;;5052366;28;20047;-66
2021/11/28 10:55:59;;;;;;;67.18;37.05;;;2.30;87.50;;;;;;5035750;28;20460;-69
2021/11/28 10:58:30;;;;;;;10.52;3.97;;;2.30;87.30;;;;;;5044856;28;20045;-63
2021/11/28 11:01:00;;;;;;;8.85;2.95;;;2.40;88.90;;;;;;5051356;28;20048;-68
2021/11/28 11:03:28;;;;;;;7.32;2.63;;;2.40;89.40;;;;;;5049494;28;20041;-67
2021/11/28 11:06:23;;;;;;;6.93;2.00;;;2.50;87.60;;;;;;5050521;28;20056;-70
2021/11/28 11:09:11;;;;;;;8.57;2.25;;;2.40;86.70;;;;;;5051302;28;20045;-70
2021/11/28 11:11:38;;;;;;;5.18;2.42;;;2.40;88.90;;;;;;5033873;28;20056;-71
2021/11/28 11:14:05;;;;;;;6.63;1.60;;;2.40;90.10;;;;;;5051416;28;20139;-64
2021/11/28 11:16:40;;;;;;;7.35;2.08;;;2.50;88.40;;;;;;5052390;28;20045;-71
2021/11/28 11:19:27;;;;;;;4.68;1.80;;;2.50;87.80;;;;;;5034315;28;20052;-70
2021/11/28 11:22:03;;;;;;;4.13;1.90;;;2.50;86.10;;;;;;5051076;28;20041;-68
2021/11/28 11:24:30;;;;;;;7.68;2.58;;;2.60;86.40;;;;;;5052701;28;20147;-68
2021/11/28 11:27:33;;;;;;;5.88;2.25;;;2.70;84.80;;;;;;5052905;28;20488;-67
2021/11/28 11:30:09;;;;;;;5.38;1.60;;;2.70;85.50;;;;;;5032542;28;20079;-69
2021/11/28 11:32:44;;;;;;;21.80;12.93;;;2.70;85.90;;;;;;5041677;28;20135;-76
2021/11/28 11:35:18;;;;;;;6.88;2.80;;;2.80;87.10;;;;;;5051022;28;20132;-69
2021/11/28 11:37:46;;;;;;;34.08;20.10;;;2.90;82.80;;;;;;5052626;28;20481;-75
2021/11/28 11:40:14;;;;;;;16.80;8.05;;;3.00;85.50;;;;;;5068033;28;20447;-63
2021/11/28 11:42:43;;;;;;;10.63;3.58;;;3.10;84.40;;;;;;5051056;28;20089;-71
2021/11/28 11:45:12;;;;;;;10.27;1.98;;;3.10;83.90;;;;;;5051914;28;20056;-71
2021/11/28 11:47:39;;;;;;;7.07;2.20;;;3.10;82.30;;;;;;5034835;28;20396;-71
2021/11/28 11:50:07;;;;;;;4.55;1.65;;;3.10;83.80;;;;;;5030898;28;20302;-71
2021/11/28 11:52:34;;;;;;;6.55;2.33;;;3.10;82.50;;;;;;5049894;28;20093;-71
2021/11/28 11:55:06;;;;;;;7.35;1.98;;;3.00;82.80;;;;;;5051170;28;20059;-70
2021/11/28 11:57:33;;;;;;;7.68;2.92;;;3.10;82.30;;;;;;5047644;28;20057;-70
2021/11/28 12:00:25;;;;;;;4.32;2.05;;;3.10;82.30;;;;;;5050251;28;20048;-69
2021/11/28 12:02:53;;;;;;;4.85;2.00;;;3.10;84.00;;;;;;5046289;28;20041;-69
2021/11/28 12:05:31;;;;;;;4.17;1.90;;;3.10;82.50;;;;;;5051330;28;20045;-67
2021/11/28 12:08:13;;;;;;;7.30;2.00;;;3.10;82.30;;;;;;5051335;28;20045;-67
2021/11/28 12:10:44;;;;;;;5.95;1.92;;;3.20;81.70;;;;;;5048509;28;20070;-69
2021/11/28 12:13:27;;;;;;;6.95;1.92;;;3.20;81.20;;;;;;5033977;28;20488;-67
2021/11/28 12:16:17;;;;;;;7.93;2.10;;;3.30;82.70;;;;;;5039627;28;20045;-70
2021/11/28 12:18:49;;;;;;;4.30;2.00;;;3.30;80.90;;;;;;5068325;28;20045;-68
2021/11/28 12:21:17;;;;;;;3.95;1.75;;;3.30;81.30;;;;;;5051347;28;20060;-67
2021/11/28 12:24:03;;;;;;;4.50;1.60;;;3.30;83.20;;;;;;5049979;28;20488;-67
2021/11/28 12:26:30;;;;;;;6.88;1.83;;;3.40;81.40;;;;;;5050881;28;20492;-65
2021/11/28 12:29:16;;;;;;;5.03;1.75;;;3.30;82.30;;;;;;5049723;28;20052;-67
2021/11/28 12:31:50;;;;;;;6.82;2.42;;;3.30;80.10;;;;;;5049684;28;20044;-68
2021/11/28 12:34:28;;;;;;;6.20;2.20;;;3.40;83.00;;;;;;5034817;28;20045;-67
2021/11/28 12:36:57;;;;;;;6.63;1.70;;;3.40;80.70;;;;;;5033807;28;20060;-68
2021/11/28 12:39:24;;;;;;;4.30;1.85;;;3.40;80.20;;;;;;5034063;28;20057;-70
2021/11/28 12:42:10;;;;;;;12.07;3.38;;;3.40;79.80;;;;;;5049912;28;20049;-70
2021/11/28 12:44:49;;;;;;;4.70;1.90;;;3.40;79.80;;;;;;5051821;28;20052;-67
2021/11/28 12:47:23;;;;;;;6.43;2.10;;;3.40;81.30;;;;;;5051375;28;20052;-69
2021/11/28 12:50:01;;;;;;;4.18;1.92;;;3.50;80.60;;;;;;5050089;28;20160;-69
2021/11/28 12:52:41;;;;;;;4.07;2.08;;;3.50;79.50;;;;;;5051319;28;20047;-69
2021/11/28 12:55:12;;;;;;;7.07;1.70;;;3.50;79.00;;;;;;5049947;28;20143;-69
2021/11/28 12:57:57;;;;;;;4.38;1.73;;;3.50;80.00;;;;;;5033639;28;20079;-69
2021/11/28 13:00:24;;;;;;;6.13;1.90;;;3.60;79.30;;;;;;5048119;28;20049;-69
2021/11/28 13:02:51;;;;;;;5.78;1.85;;;3.70;78.20;;;;;;5049166;28;20056;-69
2021/11/28 13:05:30;;;;;;;6.03;1.90;;;3.60;79.30;;;;;;5051204;28;20060;-69